sensor_id;sensor_type;location;lat;lon;timestamp;temperature;humidity
28548;DHT22;15750;49.600;8.746;2023-02-11T00:01:37;11.60;40.60
28548;DHT22;15750;49.600;8.746;2023-02-11T00:04:06;11.60;40.70
28548;DHT22;15750;49.600;8.746;2023-02-11T00:06:35;11.60;40.60
28548;DHT22;15750;49.600;8.746;2023-02-11T00:09:04;11.60;40.60
28548;DHT22;15750;49.600;8.746;2023-02-11T00:11:33;11.60;40.60
28548;DHT22;15750;49.600;8.746;2023-02-11T00:14:03;11.60;40.60
28548;DHT22;15750;49.600;8.746;2023-02-11T00:16:34;11.60;40.70
28548;DHT22;15750;49.600;8.746;2023-02-11T00:19:04;11.60;40.60
28548;DHT22;15750;49.600;8.746;2023-02-11T00:21:33;11.60;40.70
28548;DHT22;15750;49.600;8.746;2023-02-11T00:24:02;11.60;40.70
28548;DHT22;15750;49.600;8.746;2023-02-11T00:26:33;11.60;40.70
28548;DHT22;15750;49.600;8.746;2023-02-11T00:29:03;11.60;40.80
28548;DHT22;15750;49.600;8.746;2023-02-11T00:31:32;11.60;40.60
28548;DHT22;15750;49.600;8.746;2023-02-11T00:34:06;11.60;40.60
28548;DHT22;15750;49.600;8.746;2023-02-11T00:36:35;11.60;40.70
28548;DHT22;15750;49.600;8.746;2023-02-11T00:39:05;11.60;40.70
28548;DHT22;15750;49.600;8.746;2023-02-11T00:41:35;11.60;40.60
28548;DHT22;15750;49.600;8.746;2023-02-11T00:44:03;11.60;40.60
28548;DHT22;15750;49.600;8.746;2023-02-11T00:46:32;11.60;40.60
28548;DHT22;15750;49.600;8.746;2023-02-11T00:49:01;11.60;40.60
28548;DHT22;15750;49.600;8.746;2023-02-11T00:51:31;11.60;40.60
28548;DHT22;15750;49.600;8.746;2023-02-11T00:54:01;11.60;40.70
28548;DHT22;15750;49.600;8.746;2023-02-11T00:56:31;11.60;40.70
28548;DHT22;15750;49.600;8.746;2023-02-11T00:59:00;11.60;40.80
28548;DHT22;15750;49.600;8.746;2023-02-11T01:01:28;11.60;40.80
28548;DHT22;15750;49.600;8.746;2023-02-11T01:03:57;11.60;40.80
28548;DHT22;15750;49.600;8.746;2023-02-11T01:06:26;11.60;40.80
28548;DHT22;15750;49.600;8.746;2023-02-11T01:08:56;11.60;40.70
28548;DHT22;15750;49.600;8.746;2023-02-11T01:11:24;11.60;40.80
28548;DHT22;15750;49.600;8.746;2023-02-11T01:13:53;11.60;40.80
28548;DHT22;15750;49.600;8.746;2023-02-11T01:16:22;11.60;40.80
28548;DHT22;15750;49.600;8.746;2023-02-11T01:18:52;11.70;40.90
28548;DHT22;15750;49.600;8.746;2023-02-11T01:21:21;11.70;40.90
28548;DHT22;15750;49.600;8.746;2023-02-11T01:23:50;11.70;41.00
28548;DHT22;15750;49.600;8.746;2023-02-11T01:26:20;11.70;41.00
28548;DHT22;15750;49.600;8.746;2023-02-11T01:28:49;11.70;41.10
28548;DHT22;15750;49.600;8.746;2023-02-11T01:31:18;11.70;41.10
28548;DHT22;15750;49.600;8.746;2023-02-11T01:33:47;11.70;41.10
28548;DHT22;15750;49.600;8.746;2023-02-11T01:36:16;11.70;41.10
28548;DHT22;15750;49.600;8.746;2023-02-11T01:38:45;11.70;41.10
28548;DHT22;15750;49.600;8.746;2023-02-11T01:41:13;11.70;41.10
28548;DHT22;15750;49.600;8.746;2023-02-11T01:43:46;11.70;41.10
28548;DHT22;15750;49.600;8.746;2023-02-11T01:46:30;11.70;41.20
28548;DHT22;15750;49.600;8.746;2023-02-11T01:49:05;11.70;41.40
28548;DHT22;15750;49.600;8.746;2023-02-11T01:51:37;11.70;41.20
28548;DHT22;15750;49.600;8.746;2023-02-11T01:54:10;11.70;41.30
28548;DHT22;15750;49.600;8.746;2023-02-11T01:56:58;11.70;41.20
28548;DHT22;15750;49.600;8.746;2023-02-11T01:59:50;11.70;41.20
28548;DHT22;15750;49.600;8.746;2023-02-11T02:02:27;11.70;41.20
28548;DHT22;15750;49.600;8.746;2023-02-11T02:05:06;11.70;41.20
28548;DHT22;15750;49.600;8.746;2023-02-11T02:07:43;11.70;41.30
28548;DHT22;15750;49.600;8.746;2023-02-11T02:10:16;11.70;41.30
28548;DHT22;15750;49.600;8.746;2023-02-11T02:12:46;11.70;41.30
28548;DHT22;15750;49.600;8.746;2023-02-11T02:15:22;11.70;41.20
28548;DHT22;15750;49.600;8.746;2023-02-11T02:18:02;11.70;41.40
28548;DHT22;15750;49.600;8.746;2023-02-11T02:27:26;11.70;41.50
28548;DHT22;15750;49.600;8.746;2023-02-11T02:30:26;11.70;41.50
28548;DHT22;15750;49.600;8.746;2023-02-11T02:33:32;11.70;41.50
28548;DHT22;15750;49.600;8.746;2023-02-11T02:36:11;11.70;41.50
28548;DHT22;15750;49.600;8.746;2023-02-11T02:38:47;11.70;41.40
28548;DHT22;15750;49.600;8.746;2023-02-11T02:41:22;11.70;41.50
28548;DHT22;15750;49.600;8.746;2023-02-11T02:43:52;11.70;41.40
28548;DHT22;15750;49.600;8.746;2023-02-11T02:46:23;11.70;41.40
28548;DHT22;15750;49.600;8.746;2023-02-11T02:48:56;11.70;41.50
28548;DHT22;15750;49.600;8.746;2023-02-11T02:51:51;11.70;41.60
28548;DHT22;15750;49.600;8.746;2023-02-11T02:54:49;11.70;41.90
28548;DHT22;15750;49.600;8.746;2023-02-11T02:57:35;11.70;41.80
28548;DHT22;15750;49.600;8.746;2023-02-11T03:00:25;11.80;41.80
28548;DHT22;15750;49.600;8.746;2023-02-11T03:03:09;11.80;42.00
28548;DHT22;15750;49.600;8.746;2023-02-11T03:05:52;11.80;41.90
28548;DHT22;15750;49.600;8.746;2023-02-11T03:08:28;11.80;42.00
28548;DHT22;15750;49.600;8.746;2023-02-11T03:11:00;11.80;41.90
28548;DHT22;15750;49.600;8.746;2023-02-11T03:13:31;11.80;41.80
28548;DHT22;15750;49.600;8.746;2023-02-11T03:16:06;11.80;41.90
28548;DHT22;15750;49.600;8.746;2023-02-11T03:18:38;11.80;42.00
28548;DHT22;15750;49.600;8.746;2023-02-11T03:21:10;11.80;41.90
28548;DHT22;15750;49.600;8.746;2023-02-11T03:23:42;11.80;41.90
28548;DHT22;15750;49.600;8.746;2023-02-11T03:26:20;11.80;41.90
28548;DHT22;15750;49.600;8.746;2023-02-11T03:28:54;11.80;42.00
28548;DHT22;15750;49.600;8.746;2023-02-11T03:31:31;11.80;42.00
28548;DHT22;15750;49.600;8.746;2023-02-11T03:34:05;11.90;42.00
28548;DHT22;15750;49.600;8.746;2023-02-11T03:36:41;11.90;42.00
28548;DHT22;15750;49.600;8.746;2023-02-11T03:39:17;11.90;42.10
28548;DHT22;15750;49.600;8.746;2023-02-11T03:41:49;11.90;42.10
28548;DHT22;15750;49.600;8.746;2023-02-11T03:44:20;11.90;42.00
28548;DHT22;15750;49.600;8.746;2023-02-11T03:46:51;11.90;42.10
28548;DHT22;15750;49.600;8.746;2023-02-11T03:49:22;11.90;42.10
28548;DHT22;15750;49.600;8.746;2023-02-11T03:51:54;11.90;42.20
28548;DHT22;15750;49.600;8.746;2023-02-11T03:54:28;11.90;42.20
28548;DHT22;15750;49.600;8.746;2023-02-11T03:56:59;11.90;42.40
28548;DHT22;15750;49.600;8.746;2023-02-11T03:59:28;12.00;42.30
28548;DHT22;15750;49.600;8.746;2023-02-11T04:01:57;12.00;42.30
28548;DHT22;15750;49.600;8.746;2023-02-11T04:04:26;12.00;42.30
28548;DHT22;15750;49.600;8.746;2023-02-11T04:06:56;12.00;42.40
28548;DHT22;15750;49.600;8.746;2023-02-11T04:09:25;12.00;42.50
28548;DHT22;15750;49.600;8.746;2023-02-11T04:11:53;12.00;42.50
28548;DHT22;15750;49.600;8.746;2023-02-11T04:14:22;12.00;42.50
28548;DHT22;15750;49.600;8.746;2023-02-11T04:16:51;12.00;42.50
28548;DHT22;15750;49.600;8.746;2023-02-11T04:19:19;12.00;42.50
28548;DHT22;15750;49.600;8.746;2023-02-11T04:21:48;12.00;42.50
28548;DHT22;15750;49.600;8.746;2023-02-11T04:24:18;12.00;42.50
28548;DHT22;15750;49.600;8.746;2023-02-11T04:26:47;12.00;42.50
28548;DHT22;15750;49.600;8.746;2023-02-11T04:29:15;12.00;42.50
28548;DHT22;15750;49.600;8.746;2023-02-11T04:31:45;12.10;42.60
28548;DHT22;15750;49.600;8.746;2023-02-11T04:34:14;12.00;42.50
28548;DHT22;15750;49.600;8.746;2023-02-11T04:36:43;12.10;42.50
28548;DHT22;15750;49.600;8.746;2023-02-11T04:39:12;12.10;42.50
28548;DHT22;15750;49.600;8.746;2023-02-11T04:41:42;12.10;42.50
28548;DHT22;15750;49.600;8.746;2023-02-11T04:44:10;12.00;42.50
28548;DHT22;15750;49.600;8.746;2023-02-11T04:46:39;12.00;42.50
28548;DHT22;15750;49.600;8.746;2023-02-11T04:49:10;12.10;42.50
28548;DHT22;15750;49.600;8.746;2023-02-11T04:51:40;12.00;42.40
28548;DHT22;15750;49.600;8.746;2023-02-11T04:54:09;12.00;42.40
28548;DHT22;15750;49.600;8.746;2023-02-11T04:56:38;12.00;42.40
28548;DHT22;15750;49.600;8.746;2023-02-11T04:59:08;12.00;42.30
28548;DHT22;15750;49.600;8.746;2023-02-11T05:01:37;12.00;42.40
28548;DHT22;15750;49.600;8.746;2023-02-11T05:04:06;12.00;42.40
28548;DHT22;15750;49.600;8.746;2023-02-11T05:06:37;12.00;42.40
28548;DHT22;15750;49.600;8.746;2023-02-11T05:09:06;12.00;42.50
28548;DHT22;15750;49.600;8.746;2023-02-11T05:11:35;12.00;42.40
28548;DHT22;15750;49.600;8.746;2023-02-11T05:14:05;12.00;42.40
28548;DHT22;15750;49.600;8.746;2023-02-11T05:16:36;12.00;42.50
28548;DHT22;15750;49.600;8.746;2023-02-11T05:19:04;12.00;42.50
28548;DHT22;15750;49.600;8.746;2023-02-11T05:21:33;11.90;42.50
28548;DHT22;15750;49.600;8.746;2023-02-11T05:24:02;12.00;42.50
28548;DHT22;15750;49.600;8.746;2023-02-11T05:26:31;12.00;42.60
28548;DHT22;15750;49.600;8.746;2023-02-11T05:29:00;12.00;42.60
28548;DHT22;15750;49.600;8.746;2023-02-11T05:31:30;12.00;42.60
28548;DHT22;15750;49.600;8.746;2023-02-11T05:33:59;12.00;42.70
28548;DHT22;15750;49.600;8.746;2023-02-11T05:36:30;12.00;42.70
28548;DHT22;15750;49.600;8.746;2023-02-11T05:38:59;12.00;42.70
28548;DHT22;15750;49.600;8.746;2023-02-11T05:41:28;12.00;42.70
28548;DHT22;15750;49.600;8.746;2023-02-11T05:43:57;12.00;42.70
28548;DHT22;15750;49.600;8.746;2023-02-11T05:46:25;12.00;42.70
28548;DHT22;15750;49.600;8.746;2023-02-11T05:48:56;12.00;42.80
28548;DHT22;15750;49.600;8.746;2023-02-11T05:51:24;12.00;42.80
28548;DHT22;15750;49.600;8.746;2023-02-11T05:53:53;12.00;42.80
28548;DHT22;15750;49.600;8.746;2023-02-11T05:56:21;12.00;42.70
28548;DHT22;15750;49.600;8.746;2023-02-11T05:58:50;12.00;42.60
28548;DHT22;15750;49.600;8.746;2023-02-11T06:01:19;12.00;42.60
28548;DHT22;15750;49.600;8.746;2023-02-11T06:03:47;12.00;42.60
28548;DHT22;15750;49.600;8.746;2023-02-11T06:06:18;12.00;42.60
28548;DHT22;15750;49.600;8.746;2023-02-11T06:08:47;12.00;42.70
28548;DHT22;15750;49.600;8.746;2023-02-11T06:11:16;12.10;42.70
28548;DHT22;15750;49.600;8.746;2023-02-11T06:13:46;12.00;42.60
28548;DHT22;15750;49.600;8.746;2023-02-11T06:16:15;12.00;42.60
28548;DHT22;15750;49.600;8.746;2023-02-11T06:18:43;12.00;42.60
28548;DHT22;15750;49.600;8.746;2023-02-11T06:21:12;12.00;42.60
28548;DHT22;15750;49.600;8.746;2023-02-11T06:23:42;12.00;42.60
28548;DHT22;15750;49.600;8.746;2023-02-11T06:26:16;12.00;42.70
28548;DHT22;15750;49.600;8.746;2023-02-11T06:28:46;12.00;42.90
28548;DHT22;15750;49.600;8.746;2023-02-11T06:31:15;12.00;42.70
28548;DHT22;15750;49.600;8.746;2023-02-11T06:33:44;12.00;42.70
28548;DHT22;15750;49.600;8.746;2023-02-11T06:36:15;12.00;42.60
28548;DHT22;15750;49.600;8.746;2023-02-11T06:38:47;12.00;42.70
28548;DHT22;15750;49.600;8.746;2023-02-11T06:41:17;12.00;42.70
28548;DHT22;15750;49.600;8.746;2023-02-11T06:43:47;12.00;42.60
28548;DHT22;15750;49.600;8.746;2023-02-11T06:46:16;12.00;42.60
28548;DHT22;15750;49.600;8.746;2023-02-11T06:48:45;12.00;42.60
28548;DHT22;15750;49.600;8.746;2023-02-11T06:51:14;12.00;42.60
28548;DHT22;15750;49.600;8.746;2023-02-11T06:53:44;12.00;42.60
28548;DHT22;15750;49.600;8.746;2023-02-11T06:56:21;12.00;42.70
28548;DHT22;15750;49.600;8.746;2023-02-11T06:58:51;12.00;42.90
28548;DHT22;15750;49.600;8.746;2023-02-11T07:01:22;12.00;42.80
28548;DHT22;15750;49.600;8.746;2023-02-11T07:03:52;12.00;42.70
28548;DHT22;15750;49.600;8.746;2023-02-11T07:06:22;12.00;42.80
28548;DHT22;15750;49.600;8.746;2023-02-11T07:08:55;12.00;42.80
28548;DHT22;15750;49.600;8.746;2023-02-11T07:11:26;12.00;42.80
28548;DHT22;15750;49.600;8.746;2023-02-11T07:13:59;12.00;42.80
28548;DHT22;15750;49.600;8.746;2023-02-11T07:16:29;12.00;42.90
28548;DHT22;15750;49.600;8.746;2023-02-11T07:18:59;12.00;42.90
28548;DHT22;15750;49.600;8.746;2023-02-11T07:21:27;11.90;42.80
28548;DHT22;15750;49.600;8.746;2023-02-11T07:23:57;11.90;42.90
28548;DHT22;15750;49.600;8.746;2023-02-11T07:26:26;11.90;43.00
28548;DHT22;15750;49.600;8.746;2023-02-11T07:28:55;11.90;42.90
28548;DHT22;15750;49.600;8.746;2023-02-11T07:31:25;11.90;42.90
28548;DHT22;15750;49.600;8.746;2023-02-11T07:33:57;11.90;43.40
28548;DHT22;15750;49.600;8.746;2023-02-11T07:36:28;11.90;43.00
28548;DHT22;15750;49.600;8.746;2023-02-11T07:38:59;12.00;43.00
28548;DHT22;15750;49.600;8.746;2023-02-11T07:41:28;12.00;43.20
28548;DHT22;15750;49.600;8.746;2023-02-11T07:43:57;12.00;43.10
28548;DHT22;15750;49.600;8.746;2023-02-11T07:46:26;12.00;43.10
28548;DHT22;15750;49.600;8.746;2023-02-11T07:48:55;12.00;43.80
28548;DHT22;15750;49.600;8.746;2023-02-11T07:51:26;12.00;43.10
28548;DHT22;15750;49.600;8.746;2023-02-11T07:53:57;12.00;43.20
28548;DHT22;15750;49.600;8.746;2023-02-11T07:56:28;12.00;43.20
28548;DHT22;15750;49.600;8.746;2023-02-11T07:59:00;12.00;43.10
28548;DHT22;15750;49.600;8.746;2023-02-11T08:01:29;12.00;43.30
28548;DHT22;15750;49.600;8.746;2023-02-11T08:04:00;12.00;43.30
28548;DHT22;15750;49.600;8.746;2023-02-11T08:06:31;12.00;43.40
28548;DHT22;15750;49.600;8.746;2023-02-11T08:09:05;12.00;43.50
28548;DHT22;15750;49.600;8.746;2023-02-11T08:11:35;12.00;43.70
28548;DHT22;15750;49.600;8.746;2023-02-11T08:14:04;12.00;43.60
28548;DHT22;15750;49.600;8.746;2023-02-11T08:16:34;12.10;43.70
28548;DHT22;15750;49.600;8.746;2023-02-11T08:19:06;12.10;43.80
28548;DHT22;15750;49.600;8.746;2023-02-11T08:21:36;12.10;44.00
28548;DHT22;15750;49.600;8.746;2023-02-11T08:24:07;12.10;43.90
28548;DHT22;15750;49.600;8.746;2023-02-11T08:26:37;12.20;44.20
28548;DHT22;15750;49.600;8.746;2023-02-11T08:29:08;12.20;44.10
28548;DHT22;15750;49.600;8.746;2023-02-11T08:31:39;12.20;44.20
28548;DHT22;15750;49.600;8.746;2023-02-11T08:34:10;12.30;44.30
28548;DHT22;15750;49.600;8.746;2023-02-11T08:36:41;12.30;44.30
28548;DHT22;15750;49.600;8.746;2023-02-11T08:39:14;12.30;44.40
28548;DHT22;15750;49.600;8.746;2023-02-11T08:41:47;12.40;44.60
28548;DHT22;15750;49.600;8.746;2023-02-11T08:44:18;12.40;44.40
28548;DHT22;15750;49.600;8.746;2023-02-11T08:46:47;12.40;44.30
28548;DHT22;15750;49.600;8.746;2023-02-11T08:49:16;12.50;44.40
28548;DHT22;15750;49.600;8.746;2023-02-11T08:51:45;12.40;44.40
28548;DHT22;15750;49.600;8.746;2023-02-11T08:54:16;12.50;44.50
28548;DHT22;15750;49.600;8.746;2023-02-11T08:56:45;12.50;44.50
28548;DHT22;15750;49.600;8.746;2023-02-11T08:59:18;12.60;44.40
28548;DHT22;15750;49.600;8.746;2023-02-11T09:01:47;12.60;44.40
28548;DHT22;15750;49.600;8.746;2023-02-11T09:04:15;12.60;44.40
28548;DHT22;15750;49.600;8.746;2023-02-11T09:06:44;12.70;44.40
28548;DHT22;15750;49.600;8.746;2023-02-11T09:09:15;12.70;44.50
28548;DHT22;15750;49.600;8.746;2023-02-11T09:11:45;12.80;44.50
28548;DHT22;15750;49.600;8.746;2023-02-11T09:14:17;12.80;44.60
28548;DHT22;15750;49.600;8.746;2023-02-11T09:16:47;12.80;44.70
28548;DHT22;15750;49.600;8.746;2023-02-11T09:19:17;12.80;44.60
28548;DHT22;15750;49.600;8.746;2023-02-11T09:21:46;12.90;44.60
28548;DHT22;15750;49.600;8.746;2023-02-11T09:24:16;12.90;44.50
28548;DHT22;15750;49.600;8.746;2023-02-11T09:26:45;13.00;44.70
28548;DHT22;15750;49.600;8.746;2023-02-11T09:29:15;13.00;44.60
28548;DHT22;15750;49.600;8.746;2023-02-11T09:31:44;13.00;44.60
28548;DHT22;15750;49.600;8.746;2023-02-11T09:34:13;13.10;44.70
28548;DHT22;15750;49.600;8.746;2023-02-11T09:36:42;13.10;44.60
28548;DHT22;15750;49.600;8.746;2023-02-11T09:39:12;13.20;44.70
28548;DHT22;15750;49.600;8.746;2023-02-11T09:42:13;13.20;44.70
28548;DHT22;15750;49.600;8.746;2023-02-11T09:44:53;13.20;44.80
28548;DHT22;15750;49.600;8.746;2023-02-11T09:47:25;13.30;44.50
28548;DHT22;15750;49.600;8.746;2023-02-11T09:49:59;13.30;44.70
28548;DHT22;15750;49.600;8.746;2023-02-11T09:52:35;13.40;44.70
28548;DHT22;15750;49.600;8.746;2023-02-11T09:55:16;13.40;44.70
28548;DHT22;15750;49.600;8.746;2023-02-11T09:57:48;13.40;44.70
28548;DHT22;15750;49.600;8.746;2023-02-11T10:00:19;13.50;44.60
28548;DHT22;15750;49.600;8.746;2023-02-11T10:06:19;13.50;44.70
28548;DHT22;15750;49.600;8.746;2023-02-11T10:09:00;13.50;44.60
28548;DHT22;15750;49.600;8.746;2023-02-11T10:11:41;13.60;44.70
28548;DHT22;15750;49.600;8.746;2023-02-11T10:14:28;13.60;44.50
28548;DHT22;15750;49.600;8.746;2023-02-11T10:17:17;13.60;44.60
28548;DHT22;15750;49.600;8.746;2023-02-11T10:20:03;13.60;44.50
28548;DHT22;15750;49.600;8.746;2023-02-11T10:22:46;13.60;44.60
28548;DHT22;15750;49.600;8.746;2023-02-11T10:25:20;13.60;44.40
28548;DHT22;15750;49.600;8.746;2023-02-11T10:27:51;13.60;44.50
28548;DHT22;15750;49.600;8.746;2023-02-11T10:30:29;13.70;44.50
28548;DHT22;15750;49.600;8.746;2023-02-11T10:33:03;13.70;44.70
28548;DHT22;15750;49.600;8.746;2023-02-11T10:35:38;13.70;44.70
28548;DHT22;15750;49.600;8.746;2023-02-11T10:38:09;13.70;44.60
28548;DHT22;15750;49.600;8.746;2023-02-11T10:40:39;13.70;44.60
28548;DHT22;15750;49.600;8.746;2023-02-11T10:43:10;13.70;44.70
28548;DHT22;15750;49.600;8.746;2023-02-11T10:45:44;13.80;44.70
28548;DHT22;15750;49.600;8.746;2023-02-11T10:48:38;13.80;44.70
28548;DHT22;15750;49.600;8.746;2023-02-11T10:51:16;13.80;44.80
28548;DHT22;15750;49.600;8.746;2023-02-11T10:53:47;13.80;44.70
28548;DHT22;15750;49.600;8.746;2023-02-11T10:56:23;13.80;44.50
28548;DHT22;15750;49.600;8.746;2023-02-11T10:58:58;13.90;44.70
28548;DHT22;15750;49.600;8.746;2023-02-11T11:01:44;13.90;44.60
28548;DHT22;15750;49.600;8.746;2023-02-11T11:04:33;13.90;44.80
28548;DHT22;15750;49.600;8.746;2023-02-11T11:07:12;13.90;44.80
28548;DHT22;15750;49.600;8.746;2023-02-11T11:09:47;13.90;44.70
28548;DHT22;15750;49.600;8.746;2023-02-11T11:12:32;13.90;44.60
28548;DHT22;15750;49.600;8.746;2023-02-11T11:15:14;13.90;44.70
28548;DHT22;15750;49.600;8.746;2023-02-11T11:17:47;14.00;44.80
28548;DHT22;15750;49.600;8.746;2023-02-11T11:20:24;14.00;44.70
28548;DHT22;15750;49.600;8.746;2023-02-11T11:23:09;14.00;44.70
28548;DHT22;15750;49.600;8.746;2023-02-11T11:25:44;14.00;44.80
28548;DHT22;15750;49.600;8.746;2023-02-11T11:28:27;14.00;44.50
28548;DHT22;15750;49.600;8.746;2023-02-11T11:30:57;14.00;44.60
28548;DHT22;15750;49.600;8.746;2023-02-11T11:33:31;14.00;44.60
28548;DHT22;15750;49.600;8.746;2023-02-11T11:36:04;14.00;44.70
28548;DHT22;15750;49.600;8.746;2023-02-11T11:38:37;14.10;44.70
28548;DHT22;15750;49.600;8.746;2023-02-11T11:41:29;14.10;44.70
28548;DHT22;15750;49.600;8.746;2023-02-11T11:44:04;14.10;44.90
28548;DHT22;15750;49.600;8.746;2023-02-11T11:46:52;14.10;44.80
28548;DHT22;15750;49.600;8.746;2023-02-11T11:49:40;14.10;44.70
28548;DHT22;15750;49.600;8.746;2023-02-11T11:52:18;14.10;44.80
28548;DHT22;15750;49.600;8.746;2023-02-11T11:55:08;14.10;44.80
28548;DHT22;15750;49.600;8.746;2023-02-11T11:57:40;14.20;44.90
28548;DHT22;15750;49.600;8.746;2023-02-11T12:00:14;14.20;44.70
28548;DHT22;15750;49.600;8.746;2023-02-11T12:03:09;14.20;44.90
28548;DHT22;15750;49.600;8.746;2023-02-11T12:06:03;14.20;45.00
28548;DHT22;15750;49.600;8.746;2023-02-11T12:08:44;14.20;45.00
28548;DHT22;15750;49.600;8.746;2023-02-11T12:11:24;14.20;44.90
28548;DHT22;15750;49.600;8.746;2023-02-11T12:14:07;14.20;44.90
28548;DHT22;15750;49.600;8.746;2023-02-11T12:16:49;14.30;45.10
28548;DHT22;15750;49.600;8.746;2023-02-11T12:19:42;14.30;45.00
28548;DHT22;15750;49.600;8.746;2023-02-11T12:22:30;14.30;45.00
28548;DHT22;15750;49.600;8.746;2023-02-11T12:25:24;14.30;45.00
28548;DHT22;15750;49.600;8.746;2023-02-11T12:28:06;14.30;45.00
28548;DHT22;15750;49.600;8.746;2023-02-11T12:30:56;14.30;45.50
28548;DHT22;15750;49.600;8.746;2023-02-11T12:33:43;14.30;44.90
28548;DHT22;15750;49.600;8.746;2023-02-11T12:36:31;14.30;44.90
28548;DHT22;15750;49.600;8.746;2023-02-11T12:39:14;14.30;44.80
28548;DHT22;15750;49.600;8.746;2023-02-11T12:42:01;14.30;44.90
28548;DHT22;15750;49.600;8.746;2023-02-11T12:45:08;14.30;44.90
28548;DHT22;15750;49.600;8.746;2023-02-11T12:47:52;14.30;44.90
28548;DHT22;15750;49.600;8.746;2023-02-11T12:50:35;14.30;44.90
28548;DHT22;15750;49.600;8.746;2023-02-11T12:53:23;14.30;44.90
28548;DHT22;15750;49.600;8.746;2023-02-11T12:56:05;14.30;45.00
28548;DHT22;15750;49.600;8.746;2023-02-11T12:58:40;14.30;44.90
28548;DHT22;15750;49.600;8.746;2023-02-11T13:01:17;14.30;44.80
28548;DHT22;15750;49.600;8.746;2023-02-11T13:03:50;14.30;45.00
28548;DHT22;15750;49.600;8.746;2023-02-11T13:06:25;14.30;45.00
28548;DHT22;15750;49.600;8.746;2023-02-11T13:08:59;14.30;45.00
28548;DHT22;15750;49.600;8.746;2023-02-11T13:11:35;14.30;45.10
28548;DHT22;15750;49.600;8.746;2023-02-11T13:14:11;14.30;45.20
28548;DHT22;15750;49.600;8.746;2023-02-11T13:16:45;14.30;45.20
28548;DHT22;15750;49.600;8.746;2023-02-11T13:19:20;14.30;45.00
28548;DHT22;15750;49.600;8.746;2023-02-11T13:22:04;14.30;45.20
28548;DHT22;15750;49.600;8.746;2023-02-11T13:24:41;14.30;45.40
28548;DHT22;15750;49.600;8.746;2023-02-11T13:27:23;14.30;45.20
28548;DHT22;15750;49.600;8.746;2023-02-11T13:30:28;14.30;45.40
28548;DHT22;15750;49.600;8.746;2023-02-11T13:33:20;14.30;45.40
28548;DHT22;15750;49.600;8.746;2023-02-11T13:36:23;14.30;45.50
28548;DHT22;15750;49.600;8.746;2023-02-11T13:39:03;14.30;45.50
28548;DHT22;15750;49.600;8.746;2023-02-11T13:41:37;14.30;45.20
28548;DHT22;15750;49.600;8.746;2023-02-11T13:44:21;14.30;45.30
28548;DHT22;15750;49.600;8.746;2023-02-11T13:46:59;14.30;45.50
28548;DHT22;15750;49.600;8.746;2023-02-11T13:49:32;14.20;45.50
28548;DHT22;15750;49.600;8.746;2023-02-11T13:52:17;14.30;45.40
28548;DHT22;15750;49.600;8.746;2023-02-11T13:54:51;14.20;45.70
28548;DHT22;15750;49.600;8.746;2023-02-11T13:57:34;14.20;45.40
28548;DHT22;15750;49.600;8.746;2023-02-11T14:00:43;14.20;45.50
28548;DHT22;15750;49.600;8.746;2023-02-11T14:03:33;14.20;45.70
28548;DHT22;15750;49.600;8.746;2023-02-11T14:06:26;14.20;45.60
28548;DHT22;15750;49.600;8.746;2023-02-11T14:09:39;14.20;45.50
28548;DHT22;15750;49.600;8.746;2023-02-11T14:12:29;14.20;45.60
28548;DHT22;15750;49.600;8.746;2023-02-11T14:15:20;14.20;45.70
28548;DHT22;15750;49.600;8.746;2023-02-11T14:17:54;14.20;45.40
28548;DHT22;15750;49.600;8.746;2023-02-11T14:20:37;14.20;45.40
28548;DHT22;15750;49.600;8.746;2023-02-11T14:23:25;14.20;45.80
28548;DHT22;15750;49.600;8.746;2023-02-11T14:26:02;14.20;45.80
28548;DHT22;15750;49.600;8.746;2023-02-11T14:28:55;14.20;45.70
28548;DHT22;15750;49.600;8.746;2023-02-11T14:31:32;14.20;45.50
28548;DHT22;15750;49.600;8.746;2023-02-11T14:34:25;14.20;45.60
28548;DHT22;15750;49.600;8.746;2023-02-11T14:37:18;14.20;45.90
28548;DHT22;15750;49.600;8.746;2023-02-11T14:40:00;14.20;45.70
28548;DHT22;15750;49.600;8.746;2023-02-11T14:42:34;14.20;45.50
28548;DHT22;15750;49.600;8.746;2023-02-11T14:45:06;14.20;45.50
28548;DHT22;15750;49.600;8.746;2023-02-11T14:47:40;14.20;45.70
28548;DHT22;15750;49.600;8.746;2023-02-11T14:50:18;14.20;45.80
28548;DHT22;15750;49.600;8.746;2023-02-11T14:52:50;14.20;45.90
28548;DHT22;15750;49.600;8.746;2023-02-11T14:55:27;14.20;45.60
28548;DHT22;15750;49.600;8.746;2023-02-11T14:58:10;14.20;46.00
28548;DHT22;15750;49.600;8.746;2023-02-11T15:00:53;14.20;46.00
28548;DHT22;15750;49.600;8.746;2023-02-11T15:03:30;14.20;46.00
28548;DHT22;15750;49.600;8.746;2023-02-11T15:06:04;14.20;45.80
28548;DHT22;15750;49.600;8.746;2023-02-11T15:08:36;14.20;45.90
28548;DHT22;15750;49.600;8.746;2023-02-11T15:11:09;14.20;45.90
28548;DHT22;15750;49.600;8.746;2023-02-11T15:13:40;14.20;46.00
28548;DHT22;15750;49.600;8.746;2023-02-11T15:16:15;14.20;45.80
28548;DHT22;15750;49.600;8.746;2023-02-11T15:18:47;14.20;45.90
28548;DHT22;15750;49.600;8.746;2023-02-11T15:21:24;14.20;45.90
28548;DHT22;15750;49.600;8.746;2023-02-11T15:23:57;14.20;46.10
28548;DHT22;15750;49.600;8.746;2023-02-11T15:26:28;14.20;45.90
28548;DHT22;15750;49.600;8.746;2023-02-11T15:28:57;14.20;45.90
28548;DHT22;15750;49.600;8.746;2023-02-11T15:31:26;14.20;45.90
28548;DHT22;15750;49.600;8.746;2023-02-11T15:34:06;14.20;46.00
28548;DHT22;15750;49.600;8.746;2023-02-11T15:36:37;14.20;46.30
28548;DHT22;15750;49.600;8.746;2023-02-11T15:39:26;14.20;46.10
28548;DHT22;15750;49.600;8.746;2023-02-11T15:42:16;14.20;46.30
28548;DHT22;15750;49.600;8.746;2023-02-11T15:45:06;14.20;46.30
28548;DHT22;15750;49.600;8.746;2023-02-11T15:47:36;14.20;45.90
28548;DHT22;15750;49.600;8.746;2023-02-11T15:50:07;14.20;46.00
28548;DHT22;15750;49.600;8.746;2023-02-11T15:52:46;14.20;46.10
28548;DHT22;15750;49.600;8.746;2023-02-11T15:55:16;14.20;46.30
28548;DHT22;15750;49.600;8.746;2023-02-11T15:57:49;14.20;46.20
28548;DHT22;15750;49.600;8.746;2023-02-11T16:00:22;14.20;46.30
28548;DHT22;15750;49.600;8.746;2023-02-11T16:02:52;14.20;46.30
28548;DHT22;15750;49.600;8.746;2023-02-11T16:05:27;14.20;46.30
28548;DHT22;15750;49.600;8.746;2023-02-11T16:08:00;14.20;46.40
28548;DHT22;15750;49.600;8.746;2023-02-11T16:10:39;14.20;46.30
28548;DHT22;15750;49.600;8.746;2023-02-11T16:13:22;14.20;46.30
28548;DHT22;15750;49.600;8.746;2023-02-11T16:15:53;14.20;46.30
28548;DHT22;15750;49.600;8.746;2023-02-11T16:18:32;14.20;46.40
28548;DHT22;15750;49.600;8.746;2023-02-11T16:21:11;14.20;46.60
28548;DHT22;15750;49.600;8.746;2023-02-11T16:23:49;14.20;46.60
28548;DHT22;15750;49.600;8.746;2023-02-11T16:26:25;14.20;46.60
28548;DHT22;15750;49.600;8.746;2023-02-11T16:29:09;14.20;46.60